createdAt,value
2019-01-16T00:00:03.533Z,158.27
2019-01-16T00:02:33.813Z,171.07
2019-01-16T00:05:04.011Z,106.57
2019-01-16T00:07:34.331Z,55.03
2019-01-16T00:10:13.864Z,76.70
2019-01-16T00:13:01.988Z,131.57
2019-01-16T00:15:38.455Z,121.83
2019-01-16T00:18:08.693Z,107.80
2019-01-16T00:20:48.100Z,112.67
2019-01-16T00:23:21.215Z,67.20
2019-01-16T00:25:51.928Z,137.00
2019-01-16T00:28:30.817Z,172.50
2019-01-16T00:31:15.792Z,167.67
2019-01-16T00:34:02.503Z,177.33
2019-01-16T00:36:44.822Z,171.70
2019-01-16T00:39:20.881Z,163.20
2019-01-16T00:41:54.323Z,176.30
2019-01-16T00:44:24.634Z,171.70
2019-01-16T00:46:54.901Z,172.60
2019-01-16T00:49:28.844Z,168.20
2019-01-16T00:52:05.073Z,167.73
2019-01-16T00:54:35.377Z,164.27
2019-01-16T00:57:05.655Z,150.73
2019-01-16T00:59:38.881Z,111.37
2019-01-16T01:02:27.481Z,175.17
2019-01-16T01:05:13.923Z,140.77
2019-01-16T01:08:00.332Z,143.60
2019-01-16T01:10:33.357Z,162.33
2019-01-16T01:13:06.500Z,160.47
2019-01-16T01:15:43.196Z,165.60
2019-01-16T01:18:16.142Z,157.33
2019-01-16T01:20:46.955Z,169.93
2019-01-16T01:23:23.272Z,124.37
2019-01-16T01:26:05.413Z,160.30
2019-01-16T01:28:41.716Z,174.33
2019-01-16T01:31:14.875Z,168.67
2019-01-16T01:34:02.963Z,165.70
2019-01-16T01:36:45.365Z,172.50
2019-01-16T01:39:30.612Z,166.40
2019-01-16T01:42:03.699Z,163.57
2019-01-16T01:44:50.346Z,172.87
2019-01-16T01:47:26.658Z,167.00
2019-01-16T01:50:03.870Z,163.23
2019-01-16T01:52:40.210Z,177.80
2019-01-16T01:55:25.817Z,158.93
2019-01-16T01:57:56.069Z,166.83
2019-01-16T02:00:32.554Z,169.27
2019-01-16T02:03:09.162Z,158.10
2019-01-16T02:05:39.467Z,93.30
2019-01-16T02:08:26.237Z,13.47
2019-01-16T02:11:12.801Z,130.10
2019-01-16T02:13:59.572Z,181.33
2019-01-16T02:16:46.354Z,178.40
2019-01-16T02:19:16.600Z,167.83
2019-01-16T02:22:03.335Z,165.77
2019-01-16T02:24:33.650Z,162.50
2019-01-16T02:27:06.689Z,162.77
2019-01-16T02:29:55.527Z,158.07
2019-01-16T02:32:28.818Z,163.63
2019-01-16T02:34:59.134Z,159.17
2019-01-16T02:37:29.335Z,165.53
2019-01-16T02:40:11.378Z,163.77
2019-01-16T02:42:47.623Z,164.07
2019-01-16T02:45:33.242Z,168.73
2019-01-16T02:48:09.294Z,165.43
2019-01-16T02:50:40.468Z,153.97
2019-01-16T02:53:13.490Z,121.87
2019-01-16T02:55:59.782Z,157.77
2019-01-16T02:58:30.058Z,132.47
2019-01-16T03:01:16.554Z,108.03
2019-01-16T03:03:49.592Z,159.83
2019-01-16T03:06:36.410Z,58.40
2019-01-16T03:09:12.185Z,106.97
2019-01-16T03:11:58.536Z,163.57
2019-01-16T03:14:28.803Z,168.03
2019-01-16T03:17:05.274Z,141.60
2019-01-16T03:19:35.512Z,131.33
2019-01-16T03:22:21.084Z,162.07
2019-01-16T03:24:54.481Z,126.77
2019-01-16T03:27:28.337Z,165.93
2019-01-16T03:30:01.439Z,163.43
2019-01-16T03:32:32.217Z,164.10
2019-01-16T03:35:11.468Z,169.03
2019-01-16T03:37:41.777Z,172.13
2019-01-16T03:40:18.858Z,147.63
2019-01-16T03:43:05.762Z,163.53
2019-01-16T03:45:38.729Z,167.97
2019-01-16T03:48:12.274Z,165.57
2019-01-16T03:50:42.904Z,163.87
2019-01-16T03:53:13.172Z,167.70
2019-01-16T03:56:01.765Z,170.60
2019-01-16T03:58:38.020Z,128.73
2019-01-16T04:01:14.324Z,155.50
2019-01-16T04:03:44.529Z,172.67
2019-01-16T04:06:20.920Z,164.57
2019-01-16T04:09:07.626Z,164.70
2019-01-16T04:11:40.652Z,158.53
2019-01-16T04:14:16.928Z,150.30
2019-01-16T04:16:49.969Z,166.07
2019-01-16T04:19:25.939Z,168.57
2019-01-16T04:21:56.280Z,171.67
2019-01-16T04:24:29.233Z,164.53
2019-01-16T04:26:59.420Z,162.53
2019-01-16T04:29:35.638Z,135.87
2019-01-16T04:32:17.827Z,137.37
2019-01-16T04:34:48.145Z,66.87
2019-01-16T04:37:34.391Z,126.73
2019-01-16T04:40:13.731Z,40.87
2019-01-16T04:43:02.568Z,20.07
2019-01-16T04:45:32.870Z,20.03
2019-01-16T04:48:03.053Z,5.73
2019-01-16T04:50:36.361Z,8.73
2019-01-16T04:53:10.511Z,112.70
2019-01-16T04:55:56.356Z,139.17
2019-01-16T04:58:38.413Z,134.87
2019-01-16T05:01:11.451Z,111.10
2019-01-16T05:03:53.495Z,15.07
2019-01-16T05:06:29.970Z,171.03
2019-01-16T05:09:15.310Z,168.33
2019-01-16T05:12:00.646Z,158.67
2019-01-16T05:14:36.533Z,174.23
2019-01-16T05:17:21.526Z,152.57
2019-01-16T05:19:57.851Z,157.87
2019-01-16T05:22:30.875Z,157.47
2019-01-16T05:25:13.071Z,150.50
2019-01-16T05:27:49.387Z,159.27
2019-01-16T05:30:19.630Z,148.10
2019-01-16T05:32:52.624Z,154.50
2019-01-16T05:35:25.811Z,164.13
2019-01-16T05:38:04.984Z,157.43
2019-01-16T05:40:40.993Z,159.97
2019-01-16T05:43:29.614Z,164.67
2019-01-16T05:46:02.756Z,156.37
2019-01-16T05:48:42.207Z,157.60
2019-01-16T05:51:18.560Z,156.17
2019-01-16T05:53:54.382Z,154.63
2019-01-16T05:56:30.811Z,156.40
2019-01-16T05:59:03.937Z,160.97
2019-01-16T06:01:36.938Z,152.73
2019-01-16T06:04:09.667Z,155.43
2019-01-16T06:06:39.836Z,164.73
2019-01-16T06:09:18.527Z,164.07
2019-01-16T06:11:49.066Z,158.20
2019-01-16T06:14:25.543Z,162.20
2019-01-16T06:16:55.759Z,172.03
2019-01-16T06:19:28.717Z,171.03
2019-01-16T06:21:58.945Z,164.97
2019-01-16T06:24:44.476Z,168.50
2019-01-16T06:27:17.889Z,183.60
2019-01-16T06:29:48.146Z,179.17
2019-01-16T06:32:27.555Z,173.63
2019-01-16T06:34:57.815Z,173.23
2019-01-16T06:37:28.055Z,171.67
2019-01-16T06:40:00.986Z,178.43
2019-01-16T06:42:34.097Z,192.37
2019-01-16T06:45:16.095Z,185.80
2019-01-16T06:48:04.581Z,177.73
2019-01-16T06:50:50.808Z,180.60
2019-01-16T06:53:30.073Z,161.03
2019-01-16T06:56:05.978Z,149.03
2019-01-16T06:58:39.012Z,166.80
2019-01-16T07:01:21.181Z,181.63
2019-01-16T07:04:08.041Z,187.90
2019-01-16T07:06:44.177Z,174.93
2019-01-16T07:09:30.635Z,173.80
2019-01-16T07:12:00.852Z,173.23
2019-01-16T07:14:46.618Z,170.80
2019-01-16T07:17:22.834Z,169.87
2019-01-16T07:20:09.807Z,166.27
2019-01-16T07:22:40.005Z,166.23
2019-01-16T07:25:12.934Z,164.50
2019-01-16T07:28:01.519Z,171.90
2019-01-16T07:30:34.275Z,178.90
2019-01-16T07:33:06.968Z,171.37
2019-01-16T07:35:43.179Z,169.10
2019-01-16T07:38:13.410Z,174.80
2019-01-16T07:40:44.028Z,175.07
2019-01-16T07:43:14.243Z,186.03
2019-01-16T07:45:44.414Z,182.17
2019-01-16T07:48:17.585Z,171.30
2019-01-16T07:51:03.812Z,161.47
2019-01-16T07:53:50.462Z,176.93
2019-01-16T07:56:24.070Z,162.60
2019-01-16T07:59:00.291Z,168.47
2019-01-16T08:01:33.196Z,161.07
2019-01-16T08:04:18.078Z,283.73
2019-01-16T08:07:03.401Z,196.30
2019-01-16T08:09:42.456Z,185.90
2019-01-16T08:12:12.669Z,184.80
2019-01-16T08:15:01.199Z,175.20
2019-01-16T08:17:31.456Z,181.77
2019-01-16T08:20:16.530Z,158.80
2019-01-16T08:22:52.560Z,136.83
